Time;durP1;ratioP1;P1;durP2;ratioP2;P2;SDS_P1;SDS_P2;PMS_P1;PMS_P2;Temp;Humidity;BMP_temperature;BMP_pressure;BME280_temperature;BME280_humidity;BME280_pressure;Samples;Min_cycle;Max_cycle;Signal;HPM_P1;HPM_P2
2023/12/30 00:00:16;;;;;;;;;;;;;;;8.97;100.00;99482.94;4994597;28;19989;-90
2023/12/30 00:02:41;;;;;;;;;;;;;;;8.80;100.00;99484.47;4993435;28;19922;-87
2023/12/30 00:05:07;;;;;;;;;;;;;;;8.68;100.00;99488.47;4994120;28;19936;-84
2023/12/30 00:07:32;;;;;;;;;;;;;;;8.75;100.00;99494.34;4993155;28;20009;-89
2023/12/30 00:09:57;;;;;;;;;;;;;;;8.79;100.00;99489.81;4975341;28;20384;-87
2023/12/30 00:12:23;;;;;;;;;;;;;;;8.83;100.00;99486.97;4982656;28;19933;-91
2023/12/30 00:14:48;;;;;;;;;;;;;;;8.72;100.00;99494.47;4976428;28;20357;-92
2023/12/30 00:17:16;;;;;;;;;;;;;;;8.81;100.00;99496.75;4975909;28;20262;-82
2023/12/30 00:19:44;;;;;;;;;;;;;;;8.99;100.00;99502.22;4974743;28;19957;-85
2023/12/30 00:22:12;;;;;;;;;;;;;;;8.73;100.00;99491.78;4993037;28;19945;-90
2023/12/30 00:24:37;;;;;;;;;;;;;;;8.99;100.00;99504.88;4992605;28;20369;-87
2023/12/30 00:27:03;;;;;;;;;;;;;;;8.74;100.00;99487.34;4991405;28;19968;-88
2023/12/30 00:29:37;;;;;;;;;;;;;;;8.74;100.00;99500.56;4993119;28;19924;-93
2023/12/30 00:32:03;;;;;;;;;;;;;;;8.75;100.00;99499.63;4992446;28;19929;-84
2023/12/30 00:34:31;;;;;;;;;;;;;;;8.78;100.00;99496.88;4975232;28;19918;-86
2023/12/30 00:36:56;;;;;;;;;;;;;;;8.69;100.00;99494.59;4994255;28;19926;-83
2023/12/30 00:39:21;;;;;;;;;;;;;;;8.79;100.00;99495.09;4994518;28;20289;-84
2023/12/30 00:41:47;;;;;;;;;;;;;;;8.85;100.00;99500.97;4992864;28;19937;-90
2023/12/30 00:44:12;;;;;;;;;;;;;;;8.86;100.00;99489.50;4975435;28;19922;-84
2023/12/30 00:46:37;;;;;;;;;;;;;;;9.02;100.00;99494.16;4992691;28;19949;-89
2023/12/30 00:49:03;;;;;;;;;;;;;;;8.89;100.00;99485.88;4992391;28;19957;-91
2023/12/30 00:51:28;;;;;;;;;;;;;;;8.87;100.00;99482.41;4975845;28;19929;-90
2023/12/30 00:53:54;;;;;;;;;;;;;;;8.90;100.00;99496.41;4974814;28;19922;-87
2023/12/30 00:56:19;;;;;;;;;;;;;;;8.96;100.00;99500.56;4992515;28;20028;-92
2023/12/30 00:58:45;;;;;;;;;;;;;;;8.79;100.00;99500.38;4975723;28;19989;-87
2023/12/30 01:01:10;;;;;;;;;;;;;;;8.85;100.00;99505.41;4992994;28;19925;-87
2023/12/30 01:03:35;;;;;;;;;;;;;;;8.85;100.00;99506.25;4993220;28;19996;-88
2023/12/30 01:06:00;;;;;;;;;;;;;;;8.84;100.00;99508.97;4992912;28;20393;-88
2023/12/30 01:08:26;;;;;;;;;;;;;;;8.82;100.00;99511.69;4992823;28;19932;-89
2023/12/30 01:10:51;;;;;;;;;;;;;;;8.83;100.00;99507.25;4975401;28;19933;-94
2023/12/30 01:13:16;;;;;;;;;;;;;;;9.03;100.00;99509.97;4973790;28;19926;-86
2023/12/30 01:15:41;;;;;;;;;;;;;;;8.98;100.00;99495.22;4975019;28;19922;-85
2023/12/30 01:18:07;;;;;;;;;;;;;;;8.80;100.00;99508.25;4975057;28;19926;-82
2023/12/30 01:20:32;;;;;;;;;;;;;;;8.72;100.00;99508.53;4992808;28;19976;-87
2023/12/30 01:22:57;;;;;;;;;;;;;;;8.69;100.00;99515.72;4992037;28;20364;-92
2023/12/30 01:25:23;;;;;;;;;;;;;;;8.71;100.00;99513.88;4992238;28;20297;-89
2023/12/30 01:27:48;;;;;;;;;;;;;;;8.71;100.00;99517.41;4973219;28;20016;-87
2023/12/30 01:30:13;;;;;;;;;;;;;;;8.80;100.00;99510.03;4991753;28;19932;-86
2023/12/30 01:32:42;;;;;;;;;;;;;;;8.76;100.00;99514.59;4995462;28;20352;-94
2023/12/30 01:35:07;;;;;;;;;;;;;;;8.78;100.00;99525.94;4996326;28;20381;-84
2023/12/30 01:37:33;;;;;;;;;;;;;;;8.81;100.00;99530.25;4995498;28;19932;-90
2023/12/30 01:39:58;;;;;;;;;;;;;;;8.74;100.00;99534.91;4995812;28;19929;-94
2023/12/30 01:42:23;;;;;;;;;;;;;;;8.87;100.00;99533.50;4994266;28;19996;-87
2023/12/30 01:44:48;;;;;;;;;;;;;;;8.85;100.00;99535.31;4995951;28;19928;-87
2023/12/30 01:47:14;;;;;;;;;;;;;;;8.75;100.00;99541.91;4996152;28;20017;-86
2023/12/30 01:49:39;;;;;;;;;;;;;;;9.00;100.00;99538.28;4977677;28;19921;-89
2023/12/30 01:52:05;;;;;;;;;;;;;;;9.09;100.00;99545.84;4978092;28;19921;-87
2023/12/30 01:54:31;;;;;;;;;;;;;;;9.25;100.00;99549.59;4995782;28;20300;-89
2023/12/30 01:56:57;;;;;;;;;;;;;;;8.99;100.00;99560.38;4994817;28;19925;-87
2023/12/30 01:59:26;;;;;;;;;;;;;;;8.79;100.00;99558.50;4978554;28;19929;-90
2023/12/30 02:01:52;;;;;;;;;;;;;;;8.73;100.00;99559.59;4996129;28;19924;-84
2023/12/30 02:04:18;;;;;;;;;;;;;;;9.07;100.00;99552.97;4978243;28;19922;-82
2023/12/30 02:06:45;;;;;;;;;;;;;;;9.04;100.00;99553.09;4995099;28;20353;-87
2023/12/30 02:09:13;;;;;;;;;;;;;;;8.81;100.00;99551.38;4978305;28;19914;-89
2023/12/30 02:11:39;;;;;;;;;;;;;;;8.88;100.00;99544.94;4994529;28;19918;-89
2023/12/30 02:14:21;;;;;;;;;;;;;;;8.90;100.00;99548.34;4996237;28;19964;-88
2023/12/30 02:16:46;;;;;;;;;;;;;;;8.91;100.00;99545.66;4978446;28;19922;-83
2023/12/30 02:19:11;;;;;;;;;;;;;;;8.83;100.00;99547.75;4996038;28;20412;-88
2023/12/30 02:21:36;;;;;;;;;;;;;;;8.80;100.00;99554.94;4995739;28;20008;-84
2023/12/30 02:24:05;;;;;;;;;;;;;;;8.90;100.00;99553.63;4995561;28;20357;-85
2023/12/30 02:26:32;;;;;;;;;;;;;;;8.80;100.00;99561.06;4994388;28;19922;-85
2023/12/30 02:29:00;;;;;;;;;;;;;;;8.75;100.00;99549.84;4994382;28;19925;-82
2023/12/30 02:31:27;;;;;;;;;;;;;;;9.01;100.00;99548.78;4994553;28;20366;-85
2023/12/30 02:33:53;;;;;;;;;;;;;;;8.91;100.00;99545.66;4977962;28;19944;-84
2023/12/30 02:36:18;;;;;;;;;;;;;;;8.76;100.00;99542.75;4994829;28;20020;-81
2023/12/30 02:38:43;;;;;;;;;;;;;;;8.90;100.00;99546.59;4994988;28;20258;-82
2023/12/30 06:20:52;;;;;;;;;;;;;;;9.08;100.00;99618.16;5111114;27;19942;-84
2023/12/30 06:23:17;;;;;;;;;;;;;;;9.20;100.00;99622.91;5110051;28;19920;-84
2023/12/30 06:25:42;;;;;;;;;;;;;;;9.26;100.00;99624.47;5109942;28;20421;-84
2023/12/30 06:28:08;;;;;;;;;;;;;;;8.89;100.00;99628.56;5109888;28;19916;-86
2023/12/30 06:30:33;;;;;;;;;;;;;;;8.82;100.00;99637.63;5109676;28;19924;-89
2023/12/30 06:33:01;;;;;;;;;;;;;;;8.81;100.00;99636.78;5108660;28;19966;-87
2023/12/30 06:35:26;;;;;;;;;;;;;;;8.76;100.00;99641.38;5109756;28;19916;-86
2023/12/30 06:37:51;;;;;;;;;;;;;;;8.99;100.00;99631.72;5109725;28;20247;-86
2023/12/30 06:40:17;;;;;;;;;;;;;;;8.87;100.00;99636.56;5109601;28;19977;-86
2023/12/30 06:42:44;;;;;;;;;;;;;;;8.83;100.00;99640.22;5109544;28;20003;-86
2023/12/30 06:45:10;;;;;;;;;;;;;;;9.02;100.00;99628.94;5109475;28;19916;-86
2023/12/30 06:47:36;;;;;;;;;;;;;;;8.95;100.00;99643.31;5108146;28;19964;-86
2023/12/30 06:50:01;;;;;;;;;;;;;;;8.89;100.00;99639.13;5124992;27;19969;-86
2023/12/30 06:52:26;;;;;;;;;;;;;;;8.85;100.00;99635.72;5109442;28;19927;-86
2023/12/30 06:54:53;;;;;;;;;;;;;;;8.93;100.00;99642.50;5109367;28;20374;-83
2023/12/30 06:57:19;;;;;;;;;;;;;;;8.87;100.00;99636.56;5109408;28;19916;-83
2023/12/30 06:59:44;;;;;;;;;;;;;;;8.81;100.00;99626.22;5109249;28;19916;-80
2023/12/30 07:02:09;;;;;;;;;;;;;;;8.81;100.00;99636.78;5107952;28;19920;-82
2023/12/30 07:04:35;;;;;;;;;;;;;;;9.16;100.00;99633.69;5108252;28;20362;-83
2023/12/30 07:07:00;;;;;;;;;;;;;;;8.98;100.00;99632.63;5109153;28;20018;-85
2023/12/30 07:09:25;;;;;;;;;;;;;;;8.87;100.00;99633.91;5108254;28;19916;-85
2023/12/30 07:11:50;;;;;;;;;;;;;;;8.89;100.00;99629.41;5109063;28;20438;-83
2023/12/30 07:14:16;;;;;;;;;;;;;;;8.98;100.00;99635.25;5109072;28;19916;-83
2023/12/30 07:16:41;;;;;;;;;;;;;;;8.89;100.00;99640.00;5108665;28;19916;-84
2023/12/30 07:19:06;;;;;;;;;;;;;;;8.81;100.00;99652.63;5107371;28;19920;-86
2023/12/30 07:21:31;;;;;;;;;;;;;;;9.25;100.00;99644.78;5108724;28;20027;-86
2023/12/30 07:23:57;;;;;;;;;;;;;;;8.96;100.00;99656.47;5109012;28;19957;-86
2023/12/30 07:26:22;;;;;;;;;;;;;;;9.00;100.00;99651.91;5108789;28;19916;-81
2023/12/30 07:28:47;;;;;;;;;;;;;;;8.90;100.00;99660.22;5108922;28;20773;-85
2023/12/30 07:31:14;;;;;;;;;;;;;;;8.78;100.00;99658.03;5100671;28;19960;-86
2023/12/30 07:33:40;;;;;;;;;;;;;;;8.83;100.00;99664.00;5093771;28;19924;-84
2023/12/30 07:36:06;;;;;;;;;;;;;;;8.81;100.00;99667.63;5094778;28;20413;-86
2023/12/30 07:38:32;;;;;;;;;;;;;;;8.83;100.00;99665.78;5094795;28;20405;-84
2023/12/30 07:40:57;;;;;;;;;;;;;;;8.99;100.00;99666.91;5094037;28;19916;-85
2023/12/30 07:43:24;;;;;;;;;;;;;;;9.03;100.00;99671.19;5110428;28;19962;-86
2023/12/30 07:45:49;;;;;;;;;;;;;;;8.90;100.00;99678.72;5093416;28;20245;-88
2023/12/30 07:48:14;;;;;;;;;;;;;;;8.93;100.00;99676.88;5093528;28;19924;-85
2023/12/30 07:50:39;;;;;;;;;;;;;;;8.88;100.00;99675.25;5110002;28;19946;-88
2023/12/30 07:53:05;;;;;;;;;;;;;;;9.11;100.00;99677.94;5094856;28;19977;-87
2023/12/30 07:55:30;;;;;;;;;;;;;;;8.97;100.00;99678.50;5094699;28;19965;-84
2023/12/30 07:57:55;;;;;;;;;;;;;;;8.82;100.00;99670.22;5094393;28;19917;-85
2023/12/30 08:00:21;;;;;;;;;;;;;;;8.80;100.00;99674.69;5094603;28;19926;-84
2023/12/30 08:02:46;;;;;;;;;;;;;;;8.78;100.00;99679.16;5093120;28;19916;-87
2023/12/30 08:05:11;;;;;;;;;;;;;;;8.76;100.00;99681.00;5094602;28;19938;-88
2023/12/30 08:07:37;;;;;;;;;;;;;;;8.83;100.00;99674.56;5094271;28;19923;-90
2023/12/30 08:10:02;;;;;;;;;;;;;;;8.80;100.00;99674.69;5094438;28;19923;-85
2023/12/30 08:12:27;;;;;;;;;;;;;;;8.79;100.00;99672.09;5094129;28;19916;-90
2023/12/30 08:57:05;;;;;;;;;;;;;;;9.03;100.00;99673.81;5778039;23;19972;-86
2023/12/30 08:59:30;;;;;;;;;;;;;;;9.46;100.00;99665.97;5030169;28;20032;-93
2023/12/30 09:01:55;;;;;;;;;;;;;;;9.16;100.00;99668.94;5033357;28;19925;-88
2023/12/30 09:04:20;;;;;;;;;;;;;;;9.14;100.00;99677.81;5033298;28;19987;-88
2023/12/30 09:06:46;;;;;;;;;;;;;;;9.53;100.00;99672.75;5032113;28;20016;-91
2023/12/30 09:09:14;;;;;;;;;;;;;;;9.34;100.00;99677.06;5031887;28;20378;-91
2023/12/30 09:11:39;;;;;;;;;;;;;;;9.00;100.00;99680.97;5030659;28;19963;-87
2023/12/30 09:14:05;;;;;;;;;;;;;;;8.90;100.00;99693.69;5030832;28;20356;-94
2023/12/30 09:16:32;;;;;;;;;;;;;;;8.97;100.00;99697.00;5011142;28;19921;-91
2023/12/30 09:18:57;;;;;;;;;;;;;;;8.95;100.00;99697.03;5030616;28;19960;-87
2023/12/30 09:21:22;;;;;;;;;;;;;;;8.86;100.00;99703.53;5030677;28;20342;-88
2023/12/30 09:23:47;;;;;;;;;;;;;;;8.84;100.00;99709.75;5014019;28;19925;-89
2023/12/30 09:26:14;;;;;;;;;;;;;;;8.91;100.00;99704.19;5029045;28;19917;-88
2023/12/30 09:28:39;;;;;;;;;;;;;;;9.05;100.00;99698.41;5029809;28;19972;-93
2023/12/30 09:31:04;;;;;;;;;;;;;;;9.35;100.00;99702.56;5029656;28;19971;-92
2023/12/30 09:33:30;;;;;;;;;;;;;;;9.49;100.00;99700.22;5030294;28;19928;-90
2023/12/30 09:35:55;;;;;;;;;;;;;;;9.08;100.00;99700.94;5013831;28;19917;-87
2023/12/30 09:38:23;;;;;;;;;;;;;;;9.31;100.00;99709.75;5030538;28;19921;-91
2023/12/30 09:40:48;;;;;;;;;;;;;;;9.19;100.00;99713.75;5027735;28;19991;-86
2023/12/30 09:43:14;;;;;;;;;;;;;;;9.06;100.00;99726.56;5029688;28;19960;-88
2023/12/30 09:45:41;;;;;;;;;;;;;;;9.00;100.00;99728.56;5031835;28;20376;-89
2023/12/30 09:48:07;;;;;;;;;;;;;;;8.99;100.00;99725.06;5032646;28;19924;-91
2023/12/30 09:50:32;;;;;;;;;;;;;;;9.01;100.00;99727.66;5032460;28;19999;-87
2023/12/30 09:52:57;;;;;;;;;;;;;;;9.00;100.00;99721.50;5029831;28;20059;-88
2023/12/30 09:55:22;;;;;;;;;;;;;;;9.03;100.00;99716.13;5031137;28;19921;-92
2023/12/30 09:57:55;;;;;;;;;;;;;;;9.14;100.00;99722.75;5031472;28;20007;-88
2023/12/30 10:00:21;;;;;;;;;;;;;;;9.03;100.00;99717.88;5031442;28;19921;-88
2023/12/30 10:02:46;;;;;;;;;;;;;;;9.07;100.00;99722.13;5039901;28;20279;-92
2023/12/30 10:05:12;;;;;;;;;;;;;;;9.21;100.00;99725.13;5032274;28;19913;-87
2023/12/30 10:07:37;;;;;;;;;;;;;;;9.06;100.00;99728.34;5036498;28;19921;-86
2023/12/30 10:10:03;;;;;;;;;;;;;;;9.00;100.00;99723.28;5032104;28;20022;-88
2023/12/30 10:12:28;;;;;;;;;;;;;;;9.37;100.00;99724.53;5030812;28;19921;-89
2023/12/30 10:14:53;;;;;;;;;;;;;;;9.40;100.00;99729.72;5032095;28;19921;-87
2023/12/30 10:17:19;;;;;;;;;;;;;;;9.36;100.00;99723.66;5030645;28;19913;-89
2023/12/30 10:19:44;;;;;;;;;;;;;;;9.34;100.00;99724.66;5026808;28;19921;-89
2023/12/30 10:22:10;;;;;;;;;;;;;;;9.27;100.00;99719.59;5030784;28;20279;-86
2023/12/30 10:24:38;;;;;;;;;;;;;;;9.53;100.00;99720.34;5031688;28;19921;-87
2023/12/30 10:27:04;;;;;;;;;;;;;;;9.29;100.00;99716.91;5029353;28;19957;-87
2023/12/30 10:29:30;;;;;;;;;;;;;;;9.06;100.00;99718.63;5031784;28;19967;-85
2023/12/30 10:32:00;;;;;;;;;;;;;;;9.08;100.00;99708.00;5030759;28;19921;-92
2023/12/30 10:34:26;;;;;;;;;;;;;;;9.35;100.00;99711.38;5030211;28;19921;-88
2023/12/30 10:36:52;;;;;;;;;;;;;;;9.44;100.00;99703.09;5031902;28;20356;-89
2023/12/30 10:39:20;;;;;;;;;;;;;;;9.37;100.00;99698.94;5031947;28;19924;-86
2023/12/30 10:41:46;;;;;;;;;;;;;;;9.25;100.00;99702.94;5029588;28;20261;-90
2023/12/30 10:44:11;;;;;;;;;;;;;;;9.32;100.00;99705.31;5030606;28;20050;-91
2023/12/30 10:46:44;;;;;;;;;;;;;;;9.37;100.00;99692.81;5032368;28;19917;-90
2023/12/30 10:49:11;;;;;;;;;;;;;;;9.40;100.00;99687.41;5030183;28;19917;-88
2023/12/30 10:51:38;;;;;;;;;;;;;;;9.38;100.00;99687.47;5031625;28;20260;-88
2023/12/30 10:54:05;;;;;;;;;;;;;;;9.22;100.00;99684.56;5037696;28;19991;-88
2023/12/30 10:56:32;;;;;;;;;;;;;;;9.51;100.00;99690.47;5030033;28;19921;-87
2023/12/30 10:59:03;;;;;;;;;;;;;;;9.16;100.00;99674.22;5030162;28;19931;-86
2023/12/30 11:01:33;;;;;;;;;;;;;;;9.05;100.00;99687.84;5030220;28;19921;-88
2023/12/30 11:03:59;;;;;;;;;;;;;;;9.10;100.00;99685.03;5030170;28;19943;-87
2023/12/30 11:06:28;;;;;;;;;;;;;;;9.16;100.00;99684.78;5031823;28;20463;-86
2023/12/30 11:09:09;;;;;;;;;;;;;;;9.16;100.00;99675.97;5041084;28;20395;-87
2023/12/30 11:11:39;;;;;;;;;;;;;;;9.19;100.00;99668.81;5032605;28;19991;-87
2023/12/30 11:14:10;;;;;;;;;;;;;;;9.23;100.00;99664.25;5033951;28;19956;-87
2023/12/30 11:16:36;;;;;;;;;;;;;;;9.07;100.00;99664.84;5040768;28;19987;-88
2023/12/30 11:19:04;;;;;;;;;;;;;;;9.33;100.00;99665.59;5034428;28;20368;-88
2023/12/30 11:21:32;;;;;;;;;;;;;;;9.40;100.00;99658.31;5035064;28;19928;-88
2023/12/30 11:24:01;;;;;;;;;;;;;;;9.48;100.00;99653.56;5035038;28;19967;-86
2023/12/30 11:26:28;;;;;;;;;;;;;;;9.34;100.00;99651.47;5032501;28;19925;-86
2023/12/30 11:29:00;;;;;;;;;;;;;;;9.12;100.00;99651.44;5034777;28;20577;-84
2023/12/30 11:31:34;;;;;;;;;;;;;;;9.11;100.00;99651.50;5033484;28;19921;-86
2023/12/30 11:33:59;;;;;;;;;;;;;;;9.14;100.00;99646.94;5034581;28;19964;-85
2023/12/30 11:36:26;;;;;;;;;;;;;;;9.43;100.00;99642.31;5032672;28;19921;-87
2023/12/30 11:38:53;;;;;;;;;;;;;;;9.32;100.00;99639.22;5034760;28;19921;-86
2023/12/30 11:41:18;;;;;;;;;;;;;;;9.57;100.00;99637.31;5033521;28;19925;-86
2023/12/30 11:43:44;;;;;;;;;;;;;;;9.35;100.00;99637.34;5034699;28;19948;-83
2023/12/30 11:46:09;;;;;;;;;;;;;;;9.35;100.00;99639.97;5034965;28;19952;-89
2023/12/30 11:48:37;;;;;;;;;;;;;;;9.48;100.00;99635.06;5034677;28;19917;-83
2023/12/30 11:51:02;;;;;;;;;;;;;;;9.52;100.00;99631.34;5033047;28;19917;-88
2023/12/30 11:53:32;;;;;;;;;;;;;;;9.39;100.00;99627.50;5033164;28;19932;-85
2023/12/30 11:55:58;;;;;;;;;;;;;;;9.33;100.00;99627.72;5031995;28;19924;-85
2023/12/30 11:58:24;;;;;;;;;;;;;;;9.33;100.00;99630.38;5032662;28;19964;-87
2023/12/30 12:00:49;;;;;;;;;;;;;;;9.35;100.00;99628.53;5034414;28;19972;-85
2023/12/30 12:03:14;;;;;;;;;;;;;;;9.27;100.00;99618.28;5034343;28;19918;-84
2023/12/30 12:05:39;;;;;;;;;;;;;;;9.19;100.00;99615.94;5034143;28;19925;-84
2023/12/30 12:08:08;;;;;;;;;;;;;;;9.19;100.00;99615.06;5032615;28;19917;-82
2023/12/30 12:10:34;;;;;;;;;;;;;;;9.14;100.00;99612.59;5034114;28;19917;-89
2023/12/30 12:13:02;;;;;;;;;;;;;;;9.24;100.00;99619.25;5031675;28;19921;-82
2023/12/30 12:15:28;;;;;;;;;;;;;;;9.59;100.00;99613.47;5033003;28;19918;-82
2023/12/30 12:17:53;;;;;;;;;;;;;;;9.19;100.00;99610.66;5034109;28;19917;-87
2023/12/30 12:20:18;;;;;;;;;;;;;;;9.16;100.00;99602.84;5032797;28;19921;-85
2023/12/30 12:22:46;;;;;;;;;;;;;;;9.18;100.00;99603.63;5032223;28;20096;-87
2023/12/30 12:25:11;;;;;;;;;;;;;;;9.11;100.00;99607.44;5032726;28;19924;-86
2023/12/30 12:27:36;;;;;;;;;;;;;;;9.14;100.00;99604.66;5032037;28;19917;-84
2023/12/30 12:30:02;;;;;;;;;;;;;;;9.36;100.00;99599.38;5034119;28;19924;-85
2023/12/30 12:32:28;;;;;;;;;;;;;;;9.23;100.00;99599.00;5033590;28;20260;-85
2023/12/30 12:34:53;;;;;;;;;;;;;;;9.50;100.00;99588.22;5032412;28;20386;-84
2023/12/30 12:37:18;;;;;;;;;;;;;;;9.20;100.00;99585.91;5033776;28;19943;-85
2023/12/30 12:39:44;;;;;;;;;;;;;;;9.18;100.00;99598.34;5033590;28;20356;-82
2023/12/30 12:42:10;;;;;;;;;;;;;;;9.23;100.00;99591.06;5030539;28;19951;-85
2023/12/30 12:44:35;;;;;;;;;;;;;;;9.14;100.00;99586.16;5033532;28;20280;-82
2023/12/30 12:47:01;;;;;;;;;;;;;;;9.13;100.00;99587.09;5032371;28;19972;-84
2023/12/30 12:49:26;;;;;;;;;;;;;;;9.13;100.00;99588.91;5033491;28;19957;-86
2023/12/30 12:51:52;;;;;;;;;;;;;;;9.12;100.00;99582.72;5033456;28;19921;-84
2023/12/30 12:54:26;;;;;;;;;;;;;;;9.40;100.00;99581.63;5033240;28;19917;-89
2023/12/30 12:56:51;;;;;;;;;;;;;;;9.21;100.00;99577.06;5029138;28;19949;-83
2023/12/30 12:59:17;;;;;;;;;;;;;;;9.20;100.00;99577.13;5031789;28;19928;-84
2023/12/30 13:01:43;;;;;;;;;;;;;;;9.19;100.00;99578.94;5033258;28;19927;-85
2023/12/30 13:04:08;;;;;;;;;;;;;;;9.44;100.00;99577.91;5039919;28;19921;-85
2023/12/30 13:06:34;;;;;;;;;;;;;;;9.59;100.00;99574.63;5033071;28;20291;-85
2023/12/30 13:09:00;;;;;;;;;;;;;;;9.36;100.00;99569.44;5033123;28;19917;-85
2023/12/30 13:11:31;;;;;;;;;;;;;;;9.50;100.00;99575.00;5030375;28;19928;-86
2023/12/30 13:14:09;;;;;;;;;;;;;;;9.29;100.00;99571.47;5031295;28;19917;-84
2023/12/30 13:16:34;;;;;;;;;;;;;;;9.35;100.00;99571.22;5031641;28;20012;-87
2023/12/30 13:18:59;;;;;;;;;;;;;;;9.21;100.00;99566.50;5031566;28;20008;-86
2023/12/30 13:21:25;;;;;;;;;;;;;;;9.18;100.00;99563.97;5031625;28;19921;-83
2023/12/30 13:23:50;;;;;;;;;;;;;;;9.24;100.00;99561.09;5032596;28;19944;-86
2023/12/30 13:26:18;;;;;;;;;;;;;;;9.18;100.00;99556.03;5031567;28;20372;-85
2023/12/30 13:28:43;;;;;;;;;;;;;;;9.25;100.00;99554.00;5032360;28;19917;-87
2023/12/30 13:31:08;;;;;;;;;;;;;;;9.17;100.00;99550.81;5032935;28;20286;-86
2023/12/30 13:33:35;;;;;;;;;;;;;;;9.15;100.00;99555.31;5037981;28;19918;-87
2023/12/30 13:36:05;;;;;;;;;;;;;;;9.14;100.00;99545.66;5032458;28;19971;-85
2023/12/30 13:38:35;;;;;;;;;;;;;;;9.12;100.00;99536.94;5032474;28;20474;-86
2023/12/30 13:41:03;;;;;;;;;;;;;;;9.12;100.00;99545.72;5031332;28;19920;-87
2023/12/30 13:43:29;;;;;;;;;;;;;;;9.12;100.00;99535.16;5031241;28;19956;-88
2023/12/30 13:46:02;;;;;;;;;;;;;;;9.11;100.00;99544.03;5032492;28;19971;-94
2023/12/30 13:51:15;;;;;;;;;;;;;;;9.10;100.00;99537.00;5030144;28;20383;-86
2023/12/30 13:53:41;;;;;;;;;;;;;;;9.14;100.00;99528.00;5031033;28;20430;-86
2023/12/30 13:56:06;;;;;;;;;;;;;;;9.13;100.00;99523.66;5028866;28;19925;-87
2023/12/30 13:58:32;;;;;;;;;;;;;;;9.14;100.00;99519.22;5027369;28;20387;-84
2023/12/30 14:00:57;;;;;;;;;;;;;;;9.14;100.00;99517.44;5030944;28;20315;-86
2023/12/30 14:03:23;;;;;;;;;;;;;;;9.13;100.00;99514.88;5027390;28;19921;-83
2023/12/30 14:05:48;;;;;;;;;;;;;;;9.15;100.00;99507.75;5028729;28;20047;-88
2023/12/30 14:08:17;;;;;;;;;;;;;;;9.16;100.00;99517.38;5027888;28;20390;-84
2023/12/30 14:10:47;;;;;;;;;;;;;;;9.16;100.00;99512.06;5030480;28;20396;-83
2023/12/30 14:13:12;;;;;;;;;;;;;;;9.14;100.00;99512.16;5026698;28;19928;-85
2023/12/30 14:15:38;;;;;;;;;;;;;;;9.14;100.00;99516.56;5030296;28;19929;-85
2023/12/30 14:18:04;;;;;;;;;;;;;;;9.13;100.00;99510.44;5031659;28;19949;-83
2023/12/30 14:20:29;;;;;;;;;;;;;;;9.11;100.00;99516.69;5031907;28;20014;-86
2023/12/30 14:22:54;;;;;;;;;;;;;;;9.17;100.00;99509.38;5031834;28;20004;-87
2023/12/30 14:25:20;;;;;;;;;;;;;;;9.14;100.00;99503.38;5030620;28;19921;-85
2023/12/30 14:27:45;;;;;;;;;;;;;;;9.16;100.00;99491.81;5028807;28;19964;-86
2023/12/30 14:30:11;;;;;;;;;;;;;;;9.12;100.00;99498.13;5030766;28;19925;-81
2023/12/30 14:32:36;;;;;;;;;;;;;;;9.15;100.00;99494.53;5031861;28;19925;-84
2023/12/30 14:35:03;;;;;;;;;;;;;;;9.13;100.00;99496.38;5031793;28;20330;-83
2023/12/30 14:37:28;;;;;;;;;;;;;;;9.12;100.00;99492.84;5028797;28;19996;-84
2023/12/30 14:39:53;;;;;;;;;;;;;;;9.14;100.00;99495.44;5030350;28;20011;-84
2023/12/30 14:42:19;;;;;;;;;;;;;;;9.14;100.00;99495.44;5033754;28;19917;-85
2023/12/30 14:44:45;;;;;;;;;;;;;;;9.16;100.00;99491.81;5034466;28;20368;-84
2023/12/30 14:47:10;;;;;;;;;;;;;;;9.16;100.00;99491.81;5034588;28;19921;-84
2023/12/30 14:49:35;;;;;;;;;;;;;;;9.16;100.00;99488.28;5034298;28;19923;-85
2023/12/30 14:52:00;;;;;;;;;;;;;;;9.11;100.00;99493.78;5034294;28;19921;-84
2023/12/30 14:54:26;;;;;;;;;;;;;;;9.14;100.00;99490.16;5035632;28;20273;-84
2023/12/30 14:56:53;;;;;;;;;;;;;;;9.11;100.00;99491.16;5033022;28;20012;-84
2023/12/30 14:59:18;;;;;;;;;;;;;;;9.12;100.00;99490.22;5033668;28;20028;-84
2023/12/30 15:01:43;;;;;;;;;;;;;;;9.13;100.00;99478.72;5034194;28;19917;-84
2023/12/30 15:04:09;;;;;;;;;;;;;;;9.13;100.00;99470.78;5035326;28;19924;-84
2023/12/30 15:06:35;;;;;;;;;;;;;;;9.09;100.00;99464.78;5035379;28;20309;-85
2023/12/30 15:09:01;;;;;;;;;;;;;;;9.14;100.00;99467.22;5035588;28;20227;-85
2023/12/30 15:11:27;;;;;;;;;;;;;;;9.13;100.00;99462.00;5033957;28;19921;-84
2023/12/30 15:13:52;;;;;;;;;;;;;;;9.13;100.00;99462.00;5033971;28;19925;-85
2023/12/30 15:16:18;;;;;;;;;;;;;;;9.15;100.00;99460.16;5034986;28;19959;-84
2023/12/30 15:18:43;;;;;;;;;;;;;;;9.14;100.00;99446.06;5033777;28;19921;-84
2023/12/30 15:21:09;;;;;;;;;;;;;;;9.15;100.00;99445.16;5035078;28;19935;-86
2023/12/30 15:23:34;;;;;;;;;;;;;;;9.14;100.00;99447.84;5035278;28;19921;-87
2023/12/30 15:25:59;;;;;;;;;;;;;;;9.12;100.00;99450.56;5032390;28;19921;-87
2023/12/30 15:28:24;;;;;;;;;;;;;;;9.15;100.00;99447.78;5035025;28;19921;-85
2023/12/30 15:30:50;;;;;;;;;;;;;;;9.13;100.00;99447.00;5034883;28;19969;-84
2023/12/30 15:33:16;;;;;;;;;;;;;;;9.18;100.00;99439.72;5033486;28;20338;-87
2023/12/30 15:35:42;;;;;;;;;;;;;;;9.14;100.00;99437.28;5032992;28;20276;-82
2023/12/30 15:38:07;;;;;;;;;;;;;;;9.15;100.00;99439.00;5034910;28;20398;-85
2023/12/30 15:40:34;;;;;;;;;;;;;;;9.13;100.00;99438.22;5033509;28;19917;-87
2023/12/30 15:42:59;;;;;;;;;;;;;;;9.15;100.00;99431.94;5031708;28;19960;-87
2023/12/30 15:45:24;;;;;;;;;;;;;;;9.12;100.00;99429.41;5033709;28;19948;-86
2023/12/30 15:47:50;;;;;;;;;;;;;;;9.13;100.00;99427.66;5034526;28;19960;-84
2023/12/30 15:50:15;;;;;;;;;;;;;;;9.12;100.00;99429.41;5032567;28;19917;-83
2023/12/30 15:52:40;;;;;;;;;;;;;;;9.13;100.00;99427.66;5030850;28;19928;-84
2023/12/30 15:55:06;;;;;;;;;;;;;;;9.14;100.00;99424.91;5033140;28;20016;-85
2023/12/30 15:57:32;;;;;;;;;;;;;;;9.16;100.00;99423.09;5033146;28;19913;-84
2023/12/30 15:59:57;;;;;;;;;;;;;;;9.18;100.00;99420.38;5032870;28;20408;-86
2023/12/30 16:02:23;;;;;;;;;;;;;;;9.16;100.00;99412.50;5033036;28;19918;-85
2023/12/30 16:04:48;;;;;;;;;;;;;;;9.15;100.00;99418.72;5034393;28;20400;-86
2023/12/30 16:07:13;;;;;;;;;;;;;;;9.15;100.00;99416.06;5032935;28;20004;-83
2023/12/30 16:09:39;;;;;;;;;;;;;;;9.12;100.00;99416.19;5034472;28;20045;-85
2023/12/30 16:12:05;;;;;;;;;;;;;;;9.11;100.00;99410.97;5032694;28;20507;-89
2023/12/30 16:14:30;;;;;;;;;;;;;;;9.10;100.00;99407.50;5032892;28;19921;-85
2023/12/30 16:16:55;;;;;;;;;;;;;;;9.14;100.00;99408.22;5039424;28;19918;-84
2023/12/30 16:19:21;;;;;;;;;;;;;;;9.10;100.00;99399.56;5032705;28;19983;-84
2023/12/30 16:21:46;;;;;;;;;;;;;;;9.10;100.00;99404.84;5032412;28;19917;-84
2023/12/30 16:24:11;;;;;;;;;;;;;;;9.10;100.00;99402.19;5033849;28;19917;-86
2023/12/30 16:26:38;;;;;;;;;;;;;;;9.12;100.00;99402.97;5015149;28;19921;-85
2023/12/30 16:29:03;;;;;;;;;;;;;;;9.13;100.00;99399.44;5032667;28;19921;-91
2023/12/30 16:31:29;;;;;;;;;;;;;;;9.17;100.00;99402.78;5031209;28;20068;-85
2023/12/30 16:33:56;;;;;;;;;;;;;;;9.14;100.00;99395.84;5031371;28;19928;-85
2023/12/30 16:36:23;;;;;;;;;;;;;;;9.13;100.00;99398.56;5032255;28;19921;-83
2023/12/30 16:38:48;;;;;;;;;;;;;;;9.13;100.00;99394.16;5033836;28;19968;-90
2023/12/30 16:41:14;;;;;;;;;;;;;;;9.12;100.00;99383.63;5031435;28;19956;-83
2023/12/30 16:43:39;;;;;;;;;;;;;;;9.16;100.00;99393.13;5032713;28;20338;-85
2023/12/30 16:46:04;;;;;;;;;;;;;;;9.25;100.00;99403.31;5031940;28;20295;-83
2023/12/30 16:48:29;;;;;;;;;;;;;;;9.20;100.00;99389.44;5032452;28;20307;-85
2023/12/30 16:50:55;;;;;;;;;;;;;;;9.17;100.00;99389.56;5031118;28;19921;-84
2023/12/30 16:53:20;;;;;;;;;;;;;;;9.18;100.00;99394.78;5032750;28;19930;-84
2023/12/30 16:55:45;;;;;;;;;;;;;;;9.15;100.00;99391.44;5032447;28;19921;-85
2023/12/30 16:58:10;;;;;;;;;;;;;;;9.21;100.00;99385.88;5032159;28;19925;-86
2023/12/30 17:00:36;;;;;;;;;;;;;;;9.17;100.00;99385.13;5030055;28;19921;-86
2023/12/30 17:03:01;;;;;;;;;;;;;;;9.15;100.00;99386.16;5032578;28;20276;-84
2023/12/30 17:05:26;;;;;;;;;;;;;;;9.16;100.00;99385.19;5030079;28;20277;-88